createdAt,value
2016-08-05T00:00:34.077Z,953.50
2016-08-05T00:01:22.869Z,953.53
2016-08-05T00:02:27.030Z,953.51
2016-08-05T00:03:18.568Z,953.53
2016-08-05T00:04:13.930Z,953.56
2016-08-05T00:05:27.788Z,953.56
2016-08-05T00:06:13.764Z,953.55
2016-08-05T00:07:21.329Z,953.56
2016-08-05T00:08:37.100Z,953.56
2016-08-05T00:09:16.300Z,953.56
2016-08-05T00:10:13.303Z,953.53
2016-08-05T00:11:37.888Z,953.57
2016-08-05T00:12:37.901Z,953.54
2016-08-05T00:13:37.144Z,953.55
2016-08-05T00:14:16.471Z,953.56
2016-08-05T00:15:26.539Z,953.56
2016-08-05T00:16:19.769Z,953.56
2016-08-05T00:17:36.357Z,953.55
2016-08-05T00:18:37.567Z,953.54
2016-08-05T00:19:14.659Z,953.55
2016-08-05T00:20:40.375Z,953.56
2016-08-05T00:21:26.471Z,953.56
2016-08-05T00:22:25.506Z,953.57
2016-08-05T00:23:14.835Z,953.53
2016-08-05T00:24:39.140Z,953.59
2016-08-05T00:25:28.562Z,953.57
2016-08-05T00:26:31.199Z,953.62
2016-08-05T00:27:27.427Z,953.67
2016-08-05T00:28:32.222Z,953.63
2016-08-05T00:29:25.969Z,953.58
2016-08-05T00:30:13.252Z,953.60
2016-08-05T00:31:23.628Z,953.58
2016-08-05T00:32:12.925Z,953.54
2016-08-05T00:33:14.317Z,953.52
2016-08-05T00:34:39.696Z,953.46
2016-08-05T00:35:34.539Z,953.46
2016-08-05T00:36:15.252Z,953.48
2016-08-05T00:37:32.767Z,953.45
2016-08-05T00:38:27.256Z,953.46
2016-08-05T00:39:23.100Z,953.48
2016-08-05T00:40:26.116Z,953.49
2016-08-05T00:41:14.039Z,953.43
2016-08-05T00:42:13.310Z,953.45
2016-08-05T00:43:11.992Z,953.49
2016-08-05T00:44:27.032Z,953.49
2016-08-05T00:45:33.639Z,953.49
2016-08-05T00:46:38.419Z,953.47
2016-08-05T00:47:39.220Z,953.51
2016-08-05T00:48:19.819Z,953.50
2016-08-05T00:49:13.511Z,953.49
2016-08-05T00:50:14.363Z,953.58
2016-08-05T00:51:33.467Z,953.58
2016-08-05T00:52:34.381Z,953.52
2016-08-05T00:53:13.148Z,953.54
2016-08-05T00:54:32.256Z,953.56
2016-08-05T00:55:38.052Z,953.51
2016-08-05T00:56:43.602Z,953.49
2016-08-05T00:57:11.715Z,953.50
2016-08-05T00:58:12.870Z,953.46
2016-08-05T00:59:32.249Z,953.43
2016-08-05T01:00:12.905Z,953.44
2016-08-05T01:01:25.376Z,953.46
2016-08-05T01:02:35.412Z,953.46
2016-08-05T01:03:12.756Z,953.44
2016-08-05T01:04:15.097Z,953.49
2016-08-05T01:05:30.265Z,953.51
2016-08-05T01:06:15.008Z,953.53
2016-08-05T01:07:38.411Z,953.51
2016-08-05T01:08:13.669Z,953.53
2016-08-05T01:09:15.946Z,953.54
2016-08-05T01:10:12.439Z,953.57
2016-08-05T01:11:39.030Z,953.59
2016-08-05T01:12:15.391Z,953.56
2016-08-05T01:13:27.368Z,953.60
2016-08-05T01:14:43.137Z,953.56
2016-08-05T01:15:13.807Z,953.58
2016-08-05T01:16:18.758Z,953.58
2016-08-05T01:17:16.411Z,953.59
2016-08-05T01:18:33.146Z,953.61
2016-08-05T01:19:28.471Z,953.60
2016-08-05T01:20:14.042Z,953.57
2016-08-05T01:21:33.731Z,953.59
2016-08-05T01:22:17.813Z,953.60
2016-08-05T01:23:13.572Z,953.59
2016-08-05T01:24:19.786Z,953.63
2016-08-05T01:25:12.431Z,953.63
2016-08-05T01:26:27.529Z,953.60
2016-08-05T01:27:10.883Z,953.57
2016-08-05T01:28:25.967Z,953.58
2016-08-05T01:29:12.556Z,953.59
2016-08-05T01:30:39.685Z,953.57
2016-08-05T01:31:12.957Z,953.62
2016-08-05T01:32:39.296Z,953.59
2016-08-05T01:33:29.911Z,953.55
2016-08-05T01:34:32.994Z,953.51
2016-08-05T01:35:34.373Z,953.51
2016-08-05T01:36:18.067Z,953.46
2016-08-05T01:37:48.182Z,953.43
2016-08-05T01:38:36.657Z,953.36
2016-08-05T01:39:16.408Z,953.29
2016-08-05T01:40:43.206Z,953.27
2016-08-05T01:41:23.748Z,953.26
2016-08-05T01:42:15.204Z,953.24
2016-08-05T01:43:37.007Z,953.22
2016-08-05T01:44:16.741Z,953.18
2016-08-05T01:45:31.383Z,953.21
2016-08-05T01:46:31.206Z,953.20
2016-08-05T01:47:14.836Z,953.17
2016-08-05T01:48:34.310Z,953.13
2016-08-05T01:49:29.841Z,953.14
2016-08-05T01:50:15.079Z,953.06
2016-08-05T01:51:32.471Z,953.02
2016-08-05T01:52:36.371Z,953.02
2016-08-05T01:53:14.418Z,953.02
2016-08-05T01:54:13.533Z,953.01
2016-08-05T01:55:38.384Z,952.97
2016-08-05T01:56:39.352Z,952.97
2016-08-05T01:57:17.596Z,952.99
2016-08-05T01:58:40.253Z,952.96
2016-08-05T01:59:18.004Z,952.91
2016-08-05T02:00:20.793Z,952.95
2016-08-05T02:01:36.688Z,952.92
2016-08-05T02:02:36.533Z,952.92
2016-08-05T02:03:11.583Z,952.89
2016-08-05T02:04:32.172Z,952.93
2016-08-05T02:05:13.619Z,952.89
2016-08-05T02:06:14.239Z,952.87
2016-08-05T02:07:24.749Z,952.89
2016-08-05T02:08:14.656Z,952.86
2016-08-05T02:09:40.839Z,952.92
2016-08-05T02:10:40.162Z,952.87
2016-08-05T02:11:25.382Z,952.88
2016-08-05T02:12:14.773Z,952.88
2016-08-05T02:13:18.426Z,952.88
2016-08-05T02:14:14.269Z,952.91
2016-08-05T02:15:37.035Z,952.82
2016-08-05T02:16:31.430Z,952.87
2016-08-05T02:17:32.997Z,952.90
2016-08-05T02:18:14.217Z,952.86
2016-08-05T02:19:13.953Z,952.89
2016-08-05T02:20:26.823Z,952.90
2016-08-05T02:21:26.512Z,952.92
2016-08-05T02:22:27.689Z,952.94
2016-08-05T02:23:25.943Z,952.93
2016-08-05T02:24:17.130Z,952.89
2016-08-05T02:25:14.524Z,952.82
2016-08-05T02:26:32.348Z,952.78
2016-08-05T02:27:13.145Z,952.80
2016-08-05T02:28:20.874Z,952.79
2016-08-05T02:29:24.313Z,952.71
2016-08-05T02:30:27.754Z,952.72
2016-08-05T02:31:28.339Z,952.71
2016-08-05T02:32:22.222Z,952.70
2016-08-05T02:33:27.671Z,952.69
2016-08-05T02:34:26.898Z,952.72
2016-08-05T02:35:33.107Z,952.71
2016-08-05T02:36:22.838Z,952.71
2016-08-05T02:37:26.687Z,952.71
2016-08-05T02:38:22.329Z,952.67
2016-08-05T02:39:27.400Z,952.63
2016-08-05T02:41:26.105Z,952.68
2016-08-05T02:42:26.538Z,952.65
2016-08-05T02:43:27.478Z,952.62
2016-08-05T02:44:25.326Z,952.65
2016-08-05T02:45:28.835Z,952.65
2016-08-05T02:46:30.834Z,952.62
2016-08-05T02:47:31.213Z,952.64
2016-08-05T02:48:12.733Z,952.65
2016-08-05T02:49:31.441Z,952.66
2016-08-05T02:50:20.098Z,952.66
2016-08-05T02:51:38.671Z,952.67
2016-08-05T02:52:31.075Z,952.64
2016-08-05T02:53:36.309Z,952.62
2016-08-05T02:54:31.300Z,952.60
2016-08-05T02:55:30.078Z,952.60
2016-08-05T02:56:19.349Z,952.58
2016-08-05T02:57:33.128Z,952.58
2016-08-05T02:58:38.405Z,952.57
2016-08-05T02:59:15.658Z,952.53
2016-08-05T03:00:17.415Z,952.53
2016-08-05T03:01:31.047Z,952.52
2016-08-05T03:02:32.964Z,952.53
2016-08-05T03:03:14.062Z,952.47
2016-08-05T03:04:38.948Z,952.46
2016-08-05T03:05:26.649Z,952.45
2016-08-05T03:06:18.750Z,952.44
2016-08-05T03:07:32.774Z,952.43
2016-08-05T03:08:26.574Z,952.40
2016-08-05T03:09:38.428Z,952.40
2016-08-05T03:11:30.503Z,952.46
2016-08-05T03:12:39.577Z,952.45
2016-08-05T03:13:32.170Z,952.46
2016-08-05T03:14:22.177Z,952.47
2016-08-05T03:15:13.166Z,952.50
2016-08-05T03:16:31.108Z,952.51
2016-08-05T03:17:12.962Z,952.60
2016-08-05T03:18:32.917Z,952.63
2016-08-05T03:19:32.728Z,952.62
2016-08-05T03:20:13.884Z,952.64
2016-08-05T03:21:30.262Z,952.66
2016-08-05T03:22:30.170Z,952.69
2016-08-05T03:23:28.148Z,952.68
2016-08-05T03:24:37.733Z,952.74
2016-08-05T03:25:14.032Z,952.71
2016-08-05T03:26:38.913Z,952.71
2016-08-05T03:27:32.465Z,952.76
2016-08-05T03:28:34.331Z,952.75
2016-08-05T03:29:43.167Z,952.76
2016-08-05T03:30:15.649Z,952.78
2016-08-05T03:31:32.960Z,952.79
2016-08-05T03:32:11.643Z,952.80
2016-08-05T03:33:26.467Z,952.86
2016-08-05T03:34:13.216Z,952.83
2016-08-05T03:35:37.049Z,952.82
2016-08-05T03:36:27.489Z,952.81
2016-08-05T03:37:21.954Z,952.82
2016-08-05T03:38:38.331Z,952.81
2016-08-05T03:39:33.959Z,952.86
2016-08-05T03:40:25.649Z,952.87
2016-08-05T03:41:32.392Z,952.91
2016-08-05T03:42:25.981Z,952.89
2016-08-05T03:43:32.057Z,952.92
2016-08-05T03:44:39.208Z,952.90
2016-08-05T03:45:14.635Z,952.87
2016-08-05T03:46:13.505Z,952.87
2016-08-05T03:47:30.945Z,952.90
2016-08-05T03:48:32.648Z,952.83
2016-08-05T03:49:27.098Z,952.85
2016-08-05T03:50:26.144Z,952.80
2016-08-05T03:51:13.044Z,952.78
2016-08-05T03:52:23.745Z,952.79
2016-08-05T03:53:28.056Z,952.76
2016-08-05T03:54:26.794Z,952.71
2016-08-05T03:55:34.188Z,952.69
2016-08-05T03:56:21.031Z,952.64
2016-08-05T03:57:25.162Z,952.62
2016-08-05T03:58:38.460Z,952.63
2016-08-05T03:59:26.489Z,952.57
2016-08-05T04:00:19.069Z,952.59
2016-08-05T04:01:19.814Z,952.60
2016-08-05T04:02:20.111Z,952.59
2016-08-05T04:03:12.706Z,952.55
2016-08-05T04:04:20.775Z,952.55
2016-08-05T04:05:31.725Z,952.58
2016-08-05T04:06:35.453Z,952.57
2016-08-05T04:07:42.771Z,952.56
2016-08-05T04:08:11.968Z,952.59
2016-08-05T04:09:22.502Z,952.58
2016-08-05T04:10:20.925Z,952.63
2016-08-05T04:11:16.056Z,952.66
2016-08-05T04:12:14.249Z,952.61
2016-08-05T04:13:12.844Z,952.65
2016-08-05T04:14:15.489Z,952.63
2016-08-05T04:15:25.364Z,952.67
2016-08-05T04:16:45.372Z,952.63
2016-08-05T04:17:26.800Z,952.66
2016-08-05T04:18:20.177Z,952.70
2016-08-05T04:19:29.229Z,952.71
2016-08-05T04:20:34.807Z,952.74
2016-08-05T04:21:36.092Z,952.73
2016-08-05T04:22:28.656Z,952.71
2016-08-05T04:23:37.279Z,952.72
2016-08-05T04:24:13.465Z,952.72
2016-08-05T04:25:18.926Z,952.70
2016-08-05T04:26:16.005Z,952.74
2016-08-05T04:27:31.154Z,952.69
2016-08-05T04:28:26.341Z,952.66
2016-08-05T04:29:19.980Z,952.69
2016-08-05T04:30:12.674Z,952.65
2016-08-05T04:31:43.987Z,952.68
2016-08-05T04:32:33.179Z,952.67
2016-08-05T04:33:39.589Z,952.71
2016-08-05T04:34:32.848Z,952.70
2016-08-05T04:35:40.009Z,952.74
2016-08-05T04:36:37.595Z,952.77
2016-08-05T04:37:28.048Z,952.79
2016-08-05T04:38:13.689Z,952.76
2016-08-05T04:39:17.693Z,952.79
2016-08-05T04:40:36.031Z,952.83
2016-08-05T04:41:25.887Z,952.85
2016-08-05T04:42:37.980Z,952.86
2016-08-05T04:43:37.459Z,952.89
2016-08-05T04:44:11.351Z,952.83
2016-08-05T04:45:16.300Z,952.88
2016-08-05T04:46:35.529Z,952.88
2016-08-05T04:47:35.569Z,952.86
2016-08-05T04:48:12.256Z,952.86
2016-08-05T04:49:13.190Z,952.86
2016-08-05T04:50:27.899Z,952.86
2016-08-05T04:51:30.446Z,952.84
2016-08-05T04:52:12.073Z,952.87
2016-08-05T04:53:13.418Z,952.88
2016-08-05T04:54:24.740Z,952.89
2016-08-05T04:55:34.286Z,952.89
2016-08-05T04:56:31.772Z,952.93
2016-08-05T04:57:26.065Z,952.93
2016-08-05T04:58:12.615Z,952.93
2016-08-05T04:59:33.948Z,952.98
2016-08-05T05:00:11.267Z,952.99
2016-08-05T05:01:28.083Z,953.04
2016-08-05T05:02:33.193Z,953.04
2016-08-05T05:03:13.637Z,953.04
2016-08-05T05:04:27.721Z,953.10
2016-08-05T05:05:24.222Z,953.05
2016-08-05T05:06:36.472Z,953.06
2016-08-05T05:07:22.717Z,953.02
2016-08-05T05:08:22.554Z,953.07
2016-08-05T05:09:18.482Z,953.00
2016-08-05T05:10:12.560Z,953.00
2016-08-05T05:11:34.896Z,953.00
2016-08-05T05:12:32.630Z,952.99
2016-08-05T05:13:15.505Z,952.96
2016-08-05T05:14:25.131Z,952.99
2016-08-05T05:15:31.600Z,953.00
2016-08-05T05:16:33.427Z,952.97
2016-08-05T05:17:34.613Z,952.99
2016-08-05T05:18:31.851Z,952.97
2016-08-05T05:19:36.723Z,952.97
2016-08-05T05:20:37.310Z,952.99
2016-08-05T05:21:38.436Z,952.98
2016-08-05T05:22:21.559Z,952.98
2016-08-05T05:23:37.228Z,952.99
2016-08-05T05:24:16.616Z,953.02
2016-08-05T05:25:12.507Z,953.03
2016-08-05T05:26:16.904Z,953.03
2016-08-05T05:27:27.651Z,953.03
2016-08-05T05:28:38.375Z,952.99
2016-08-05T05:29:32.494Z,953.02
2016-08-05T05:30:37.770Z,952.97
2016-08-05T05:31:37.562Z,952.99
2016-08-05T05:32:32.968Z,952.98
2016-08-05T05:33:17.553Z,952.97
2016-08-05T05:34:37.894Z,952.96
2016-08-05T05:35:37.527Z,952.98
2016-08-05T05:36:29.598Z,952.97
2016-08-05T05:37:18.603Z,952.98
2016-08-05T05:38:32.403Z,953.01
2016-08-05T05:39:39.136Z,952.97
2016-08-05T05:40:21.636Z,953.01
2016-08-05T05:41:20.648Z,953.02
2016-08-05T05:42:22.741Z,952.99
2016-08-05T05:43:13.175Z,953.01
2016-08-05T05:44:22.205Z,952.98
2016-08-05T05:45:14.026Z,952.99
2016-08-05T05:46:18.140Z,952.98
2016-08-05T05:47:13.838Z,952.99
2016-08-05T05:48:11.535Z,952.97
2016-08-05T05:49:18.448Z,952.99
2016-08-05T05:50:16.491Z,952.93
2016-08-05T05:51:14.355Z,952.96
2016-08-05T05:52:15.104Z,952.97
2016-08-05T05:53:14.851Z,952.98
2016-08-05T05:54:19.369Z,952.97
2016-08-05T05:55:23.257Z,952.98
2016-08-05T05:56:13.877Z,953.00
2016-08-05T05:57:13.453Z,952.98
2016-08-05T05:58:15.782Z,953.04
2016-08-05T05:59:17.324Z,953.05
2016-08-05T06:00:15.009Z,953.03
2016-08-05T06:01:20.582Z,953.02
2016-08-05T06:02:18.893Z,953.03
2016-08-05T06:03:19.119Z,953.08
2016-08-05T06:04:19.095Z,953.06
2016-08-05T06:05:16.728Z,953.09
2016-08-05T06:06:15.976Z,953.10
2016-08-05T06:07:25.885Z,953.08
2016-08-05T06:08:22.407Z,953.10
2016-08-05T06:09:15.204Z,953.11
2016-08-05T06:10:19.191Z,953.10
2016-08-05T06:11:16.236Z,953.12
2016-08-05T06:12:15.765Z,953.13
2016-08-05T06:13:13.782Z,953.13
2016-08-05T06:14:14.478Z,953.15
2016-08-05T06:15:20.252Z,953.15
2016-08-05T06:16:30.560Z,953.18
2016-08-05T06:17:19.545Z,953.19
2016-08-05T06:18:30.181Z,953.18
2016-08-05T06:19:32.019Z,953.19
2016-08-05T06:20:17.339Z,953.22
2016-08-05T06:21:35.355Z,953.23
2016-08-05T06:22:25.732Z,953.23
2016-08-05T06:23:18.574Z,953.26
2016-08-05T06:24:27.789Z,953.28
2016-08-05T06:25:16.919Z,953.25
2016-08-05T06:27:19.514Z,953.30
2016-08-05T06:28:31.757Z,953.28
2016-08-05T06:29:11.079Z,953.32
2016-08-05T06:30:12.348Z,953.26
2016-08-05T06:31:39.427Z,953.27
2016-08-05T06:32:14.197Z,953.26
2016-08-05T06:33:25.126Z,953.29
2016-08-05T06:34:27.592Z,953.27
2016-08-05T06:35:31.879Z,953.26
2016-08-05T06:36:20.442Z,953.27
2016-08-05T06:37:32.620Z,953.25
2016-08-05T06:38:32.429Z,953.25
2016-08-05T06:39:26.107Z,953.24
2016-08-05T06:40:26.211Z,953.25
2016-08-05T06:42:17.463Z,953.23
2016-08-05T06:43:12.938Z,953.23
2016-08-05T06:44:19.064Z,953.22
2016-08-05T06:45:20.492Z,953.23
2016-08-05T06:46:16.628Z,953.28
2016-08-05T06:47:33.303Z,953.27
2016-08-05T06:48:22.109Z,953.30
2016-08-05T06:49:26.208Z,953.27
2016-08-05T06:50:32.485Z,953.28
2016-08-05T06:51:27.135Z,953.31
2016-08-05T06:52:23.417Z,953.32
2016-08-05T06:53:12.004Z,953.34
2016-08-05T06:54:12.693Z,953.34
2016-08-05T06:55:32.359Z,953.34
2016-08-05T06:57:19.056Z,953.37
2016-08-05T06:58:12.347Z,953.39
2016-08-05T06:59:22.937Z,953.43
2016-08-05T07:00:31.081Z,953.46
2016-08-05T07:01:26.206Z,953.47
2016-08-05T07:02:33.916Z,953.48
2016-08-05T07:03:20.810Z,953.44
2016-08-05T07:04:13.662Z,953.46
2016-08-05T07:05:23.030Z,953.52
2016-08-05T07:06:32.140Z,953.54
2016-08-05T07:07:12.829Z,953.54
2016-08-05T07:08:12.275Z,953.58
2016-08-05T07:09:16.033Z,953.55
2016-08-05T07:10:22.292Z,953.59
2016-08-05T07:11:25.795Z,953.61
2016-08-05T07:12:22.221Z,953.61
2016-08-05T07:13:12.844Z,953.60
2016-08-05T07:14:18.724Z,953.63
2016-08-05T07:15:18.933Z,953.66
2016-08-05T07:16:25.418Z,953.63
2016-08-05T07:17:15.025Z,953.71
2016-08-05T07:18:13.849Z,953.68
2016-08-05T07:19:19.387Z,953.68
2016-08-05T07:20:31.978Z,953.70
2016-08-05T07:21:11.478Z,953.72
2016-08-05T07:22:27.831Z,953.72
2016-08-05T07:23:15.202Z,953.74
2016-08-05T07:24:32.019Z,953.74
2016-08-05T07:25:27.571Z,953.77
2016-08-05T07:27:25.825Z,953.82
2016-08-05T07:28:31.625Z,953.84
2016-08-05T07:29:27.968Z,953.83
2016-08-05T07:30:22.787Z,953.87
2016-08-05T07:31:31.836Z,953.84
2016-08-05T07:32:31.516Z,953.85
2016-08-05T07:33:13.738Z,953.92
2016-08-05T07:34:29.025Z,953.86
2016-08-05T07:35:27.351Z,953.87
2016-08-05T07:36:28.159Z,953.85
2016-08-05T07:37:28.973Z,953.88
2016-08-05T07:38:25.271Z,953.88
2016-08-05T07:39:12.515Z,953.89
2016-08-05T07:40:32.634Z,953.93
2016-08-05T07:41:17.782Z,953.91
2016-08-05T07:42:29.201Z,953.94
2016-08-05T07:43:32.005Z,953.98
2016-08-05T07:44:34.924Z,953.96
2016-08-05T07:45:27.989Z,953.97
2016-08-05T07:46:32.699Z,953.89
2016-08-05T07:47:29.596Z,953.94
2016-08-05T07:48:13.554Z,953.88
2016-08-05T07:49:22.824Z,953.91
2016-08-05T07:50:20.227Z,953.95
2016-08-05T07:51:27.764Z,953.93
2016-08-05T07:52:33.711Z,953.90
2016-08-05T07:53:35.959Z,953.91
2016-08-05T07:54:13.595Z,953.94
2016-08-05T07:55:12.916Z,953.89
2016-08-05T07:56:12.906Z,953.90
2016-08-05T07:57:13.635Z,953.92
2016-08-05T07:58:15.557Z,953.88
2016-08-05T07:59:30.825Z,953.82
2016-08-05T08:00:15.616Z,953.87
2016-08-05T08:01:32.890Z,953.86
2016-08-05T08:02:33.890Z,953.84
2016-08-05T08:03:27.906Z,953.88
2016-08-05T08:04:26.259Z,953.88
2016-08-05T08:05:28.861Z,953.87
2016-08-05T08:06:20.812Z,953.88
2016-08-05T08:07:27.787Z,953.85
2016-08-05T08:08:32.145Z,953.89
2016-08-05T08:09:28.345Z,953.89
2016-08-05T08:10:35.117Z,953.85
2016-08-05T08:11:37.368Z,953.85
2016-08-05T08:12:21.825Z,953.90
2016-08-05T08:13:26.171Z,953.90
2016-08-05T08:14:21.135Z,953.91
2016-08-05T08:15:26.781Z,953.92
2016-08-05T08:16:13.162Z,954.00
2016-08-05T08:17:21.139Z,953.98
2016-08-05T08:18:20.691Z,954.00
2016-08-05T08:19:21.473Z,954.01
2016-08-05T08:20:17.753Z,954.00
2016-08-05T08:21:27.730Z,954.03
2016-08-05T08:22:25.436Z,954.03
2016-08-05T08:23:37.183Z,954.00
2016-08-05T08:24:33.181Z,954.05
2016-08-05T08:25:30.826Z,954.08
2016-08-05T08:26:21.927Z,954.08
2016-08-05T08:27:28.412Z,954.11
2016-08-05T08:28:24.097Z,954.14
2016-08-05T08:29:26.797Z,954.17
2016-08-05T08:30:36.826Z,954.19
2016-08-05T08:31:37.119Z,954.23
2016-08-05T08:32:31.530Z,954.26
2016-08-05T08:33:30.775Z,954.26
2016-08-05T08:34:33.105Z,954.33
2016-08-05T08:35:27.106Z,954.37
2016-08-05T08:36:13.223Z,954.40
2016-08-05T08:37:25.640Z,954.50
2016-08-05T08:38:25.753Z,954.59
2016-08-05T08:39:30.759Z,954.59
2016-08-05T08:40:34.835Z,954.67
2016-08-05T08:41:30.631Z,954.68
2016-08-05T08:42:26.994Z,954.73
2016-08-05T08:43:33.800Z,954.73
2016-08-05T08:44:27.887Z,954.72
2016-08-05T08:45:32.960Z,954.77
2016-08-05T08:46:13.537Z,954.77
2016-08-05T08:47:37.905Z,954.80
2016-08-05T08:48:32.177Z,954.83
2016-08-05T08:49:33.937Z,954.85
2016-08-05T08:50:28.831Z,954.86
2016-08-05T08:51:22.417Z,954.91
2016-08-05T08:52:28.500Z,954.92
2016-08-05T08:53:29.219Z,954.88
2016-08-05T08:54:32.242Z,954.85
2016-08-05T08:55:23.346Z,954.85
2016-08-05T08:56:32.891Z,954.79
2016-08-05T08:57:26.075Z,954.84
2016-08-05T08:58:22.437Z,954.93
2016-08-05T08:59:23.606Z,954.91
2016-08-05T09:00:24.136Z,954.90
2016-08-05T09:01:26.836Z,954.91
2016-08-05T09:02:24.226Z,954.95
2016-08-05T09:03:30.705Z,954.89
2016-08-05T09:04:21.836Z,954.87
2016-08-05T09:05:31.661Z,954.91
2016-08-05T09:06:26.042Z,954.93
2016-08-05T09:07:19.800Z,954.94
2016-08-05T09:08:37.179Z,954.99
2016-08-05T09:09:26.949Z,954.97
2016-08-05T09:10:29.140Z,954.99
2016-08-05T09:12:27.833Z,955.04
2016-08-05T09:13:13.438Z,955.01
2016-08-05T09:14:27.922Z,955.02
2016-08-05T09:15:26.273Z,955.01
2016-08-05T09:16:30.774Z,955.03
2016-08-05T09:17:34.104Z,955.07
2016-08-05T09:18:23.938Z,955.06
2016-08-05T09:19:37.279Z,955.11
2016-08-05T09:20:33.310Z,955.18
2016-08-05T09:21:26.621Z,955.22
2016-08-05T09:22:27.432Z,955.23
2016-08-05T09:23:26.148Z,955.29
2016-08-05T09:24:22.280Z,955.28
2016-08-05T09:25:26.759Z,955.31
2016-08-05T09:26:31.759Z,955.32
2016-08-05T09:27:26.241Z,955.40
2016-08-05T09:28:21.363Z,955.44
2016-08-05T09:29:32.325Z,955.44
2016-08-05T09:30:31.568Z,955.45
2016-08-05T09:31:26.278Z,955.51
2016-08-05T09:32:32.169Z,955.53
2016-08-05T09:33:31.810Z,955.47
2016-08-05T09:34:33.421Z,955.54
2016-08-05T09:35:27.615Z,955.55
2016-08-05T09:36:28.017Z,955.56
2016-08-05T09:37:24.813Z,955.63
2016-08-05T09:38:27.912Z,955.62
2016-08-05T09:39:32.567Z,955.71
2016-08-05T09:40:26.900Z,955.72
2016-08-05T09:41:20.718Z,955.77
2016-08-05T09:42:24.665Z,955.82
2016-08-05T09:43:31.688Z,955.85
2016-08-05T09:44:32.283Z,955.87
2016-08-05T09:45:28.018Z,955.90
2016-08-05T09:46:26.391Z,955.87
2016-08-05T09:47:33.987Z,955.91
2016-08-05T09:48:27.774Z,955.96
2016-08-05T09:49:31.319Z,956.01
2016-08-05T09:50:27.485Z,955.99
2016-08-05T09:51:24.832Z,956.04
2016-08-05T09:52:33.985Z,956.05
2016-08-05T09:53:16.208Z,956.07
2016-08-05T09:54:12.671Z,955.95
2016-08-05T09:55:28.380Z,956.05
2016-08-05T09:57:24.774Z,956.12
2016-08-05T09:58:27.825Z,956.14
2016-08-05T09:59:29.130Z,956.14
2016-08-05T10:00:28.464Z,956.19
2016-08-05T10:01:12.383Z,956.25
2016-08-05T10:02:16.079Z,956.23
2016-08-05T10:03:22.431Z,956.25
2016-08-05T10:04:11.248Z,956.26
2016-08-05T10:05:37.197Z,956.29
2016-08-05T10:06:13.275Z,956.32
2016-08-05T10:07:12.585Z,956.36
2016-08-05T10:08:29.191Z,956.36
2016-08-05T10:09:27.084Z,956.36
2016-08-05T10:10:21.990Z,956.39
2016-08-05T10:11:28.751Z,956.40
2016-08-05T10:12:17.881Z,956.44
2016-08-05T10:13:27.131Z,956.48
2016-08-05T10:14:32.535Z,956.48
2016-08-05T10:15:27.925Z,956.52
2016-08-05T10:16:20.921Z,956.50
2016-08-05T10:17:27.197Z,956.55
2016-08-05T10:18:26.176Z,956.58
2016-08-05T10:19:32.183Z,956.57
2016-08-05T10:20:30.895Z,956.62
2016-08-05T10:21:14.214Z,956.69
2016-08-05T10:22:29.054Z,956.68
2016-08-05T10:23:31.227Z,956.67
2016-08-05T10:24:26.093Z,956.70
2016-08-05T10:25:27.640Z,956.75
2016-08-05T10:26:14.376Z,956.77
2016-08-05T10:27:14.845Z,956.80
2016-08-05T10:28:13.683Z,956.77
2016-08-05T10:29:13.400Z,956.77
2016-08-05T10:30:14.850Z,956.82
2016-08-05T10:31:21.822Z,956.84
2016-08-05T10:32:21.170Z,956.87
2016-08-05T10:33:20.337Z,956.83
2016-08-05T10:34:19.950Z,956.87
2016-08-05T10:35:21.526Z,956.88
2016-08-05T10:36:22.129Z,956.87
2016-08-05T10:37:25.088Z,956.87
2016-08-05T10:38:30.192Z,956.87
2016-08-05T10:39:23.234Z,956.86
2016-08-05T10:40:25.244Z,956.84
2016-08-05T10:42:21.387Z,956.81
2016-08-05T10:43:14.324Z,956.85
2016-08-05T10:44:26.042Z,956.87
2016-08-05T10:45:24.200Z,956.91
2016-08-05T10:46:13.234Z,956.93
2016-08-05T10:47:25.988Z,956.97
2016-08-05T10:48:23.032Z,956.95
2016-08-05T10:49:30.379Z,956.98
2016-08-05T10:50:30.562Z,956.99
2016-08-05T10:51:13.892Z,957.03
2016-08-05T10:52:30.102Z,957.00
2016-08-05T10:53:27.817Z,957.04
2016-08-05T10:54:27.657Z,957.00
2016-08-05T10:55:27.579Z,956.95
2016-08-05T10:56:27.674Z,957.03
2016-08-05T10:57:15.101Z,957.05
2016-08-05T10:58:24.515Z,957.08
2016-08-05T10:59:15.234Z,957.09
2016-08-05T11:00:13.053Z,957.08
2016-08-05T11:01:32.004Z,957.04
2016-08-05T11:02:26.287Z,957.03
2016-08-05T11:03:31.132Z,957.07
2016-08-05T11:04:12.976Z,957.07
2016-08-05T11:05:32.103Z,957.07
2016-08-05T11:06:27.636Z,957.11
2016-08-05T11:07:19.171Z,957.07
2016-08-05T11:08:27.701Z,957.10
2016-08-05T11:09:32.126Z,957.04
2016-08-05T11:10:13.298Z,957.05
2016-08-05T11:11:31.475Z,957.05
2016-08-05T11:12:27.044Z,957.06
2016-08-05T11:13:25.869Z,957.06
2016-08-05T11:14:26.916Z,957.05
2016-08-05T11:15:31.816Z,957.06
2016-08-05T11:16:32.992Z,957.04
2016-08-05T11:17:13.955Z,957.06
2016-08-05T11:18:19.006Z,957.04
2016-08-05T11:19:13.010Z,957.04
2016-08-05T11:20:25.167Z,957.06
2016-08-05T11:21:27.751Z,957.03
2016-08-05T11:22:25.818Z,957.05
2016-08-05T11:23:14.047Z,957.08
2016-08-05T11:24:24.174Z,957.11
2016-08-05T11:25:26.806Z,957.10
2016-08-05T11:26:32.907Z,957.09
2016-08-05T11:27:18.078Z,957.14
2016-08-05T11:28:19.646Z,957.23
2016-08-05T11:29:30.692Z,957.22
2016-08-05T11:30:37.583Z,957.24
2016-08-05T11:31:28.207Z,957.27
2016-08-05T11:32:26.796Z,957.33
2016-08-05T11:33:29.142Z,957.42
2016-08-05T11:34:13.659Z,957.40
2016-08-05T11:35:41.998Z,957.44
2016-08-05T11:36:12.938Z,957.45
2016-08-05T11:37:17.971Z,957.44
2016-08-05T11:38:13.867Z,957.47
2016-08-05T11:39:18.162Z,957.49
2016-08-05T11:40:37.431Z,957.47
2016-08-05T11:41:20.808Z,957.50
2016-08-05T11:42:24.804Z,957.53
2016-08-05T11:43:13.459Z,957.53
2016-08-05T11:44:28.743Z,957.57
2016-08-05T11:45:26.763Z,957.64
2016-08-05T11:46:25.881Z,957.66
2016-08-05T11:47:14.175Z,957.70
2016-08-05T11:48:38.262Z,957.67
2016-08-05T11:49:22.799Z,957.65
2016-08-05T11:50:27.909Z,957.67
2016-08-05T11:51:21.664Z,957.68
2016-08-05T11:52:41.830Z,957.63
2016-08-05T11:53:14.131Z,957.71
2016-08-05T11:54:13.568Z,957.71
2016-08-05T11:55:25.162Z,957.71
2016-08-05T11:56:26.842Z,957.79
2016-08-05T11:57:26.318Z,957.79
2016-08-05T11:58:15.113Z,957.83
2016-08-05T11:59:19.119Z,957.79
2016-08-05T12:00:19.388Z,957.85
2016-08-05T12:01:23.826Z,957.86
2016-08-05T12:02:40.384Z,957.84
2016-08-05T12:03:25.910Z,957.86
2016-08-05T12:04:31.767Z,957.90
2016-08-05T12:05:13.126Z,957.94
2016-08-05T12:06:21.487Z,957.94
2016-08-05T12:07:30.902Z,957.95
2016-08-05T12:08:26.784Z,957.96
2016-08-05T12:09:25.353Z,958.00
2016-08-05T12:10:15.812Z,958.04
2016-08-05T12:11:12.155Z,958.06
2016-08-05T12:12:13.739Z,958.03
2016-08-05T12:13:32.367Z,958.04
2016-08-05T12:14:36.231Z,958.06
2016-08-05T12:15:27.078Z,958.04
2016-08-05T12:16:31.460Z,958.03
2016-08-05T12:17:41.670Z,958.06
2016-08-05T12:18:14.773Z,958.08
2016-08-05T12:19:30.870Z,958.06
2016-08-05T12:20:15.046Z,958.10
2016-08-05T12:21:24.433Z,958.13
2016-08-05T12:22:27.164Z,958.12
2016-08-05T12:23:27.105Z,958.12
2016-08-05T12:24:13.280Z,958.12
2016-08-05T12:25:33.399Z,958.12
2016-08-05T12:26:12.703Z,958.12
2016-08-05T12:27:32.334Z,958.13
2016-08-05T12:28:11.174Z,958.17
2016-08-05T12:29:20.982Z,958.19
2016-08-05T12:30:21.856Z,958.16
2016-08-05T12:31:26.608Z,958.20
2016-08-05T12:32:13.167Z,958.21
2016-08-05T12:33:13.317Z,958.24
2016-08-05T12:34:14.428Z,958.27
2016-08-05T12:35:23.183Z,958.28
2016-08-05T12:36:14.227Z,958.28
2016-08-05T12:37:13.285Z,958.29